sensor_id;sensor_type;location;lat;lon;timestamp;pressure;altitude;pressure_sealevel;temperature;humidity
12949;BME280;6539;49.476;8.484;2022-07-03T00:02:02;100614.31;;;24.54;46.86
12949;BME280;6539;49.476;8.484;2022-07-03T00:04:47;100617.13;;;24.54;46.91
12949;BME280;6539;49.476;8.484;2022-07-03T00:07:21;100619.41;;;24.55;46.76
12949;BME280;6539;49.476;8.484;2022-07-03T00:09:57;100611.72;;;24.50;46.63
12949;BME280;6539;49.476;8.484;2022-07-03T00:12:32;100610.38;;;24.46;46.97
12949;BME280;6539;49.476;8.484;2022-07-03T00:15:43;100614.91;;;24.38;46.38
12949;BME280;6539;49.476;8.484;2022-07-03T00:18:18;100608.91;;;24.24;45.94
12949;BME280;6539;49.476;8.484;2022-07-03T00:21:11;100614.94;;;24.17;45.93
12949;BME280;6539;49.476;8.484;2022-07-03T00:27:24;100609.97;;;24.07;45.66
12949;BME280;6539;49.476;8.484;2022-07-03T00:30:15;100607.31;;;23.98;45.99
12949;BME280;6539;49.476;8.484;2022-07-03T00:32:55;100613.34;;;23.91;46.32
12949;BME280;6539;49.476;8.484;2022-07-03T00:35:35;100612.44;;;23.79;46.53
12949;BME280;6539;49.476;8.484;2022-07-03T00:38:21;100608.00;;;23.73;46.72
12949;BME280;6539;49.476;8.484;2022-07-03T00:41:01;100608.63;;;23.62;47.05
12949;BME280;6539;49.476;8.484;2022-07-03T00:43:56;100608.63;;;23.62;47.51
12949;BME280;6539;49.476;8.484;2022-07-03T00:50:30;100608.72;;;23.68;47.37
12949;BME280;6539;49.476;8.484;2022-07-03T00:53:36;100604.31;;;23.61;47.66
12949;BME280;6539;49.476;8.484;2022-07-03T00:56:50;100607.59;;;23.60;47.82
12949;BME280;6539;49.476;8.484;2022-07-03T01:03:14;100603.44;;;23.55;47.45
12949;BME280;6539;49.476;8.484;2022-07-03T01:06:09;100612.13;;;23.57;47.41
12949;BME280;6539;49.476;8.484;2022-07-03T01:09:13;100611.94;;;23.61;47.58
12949;BME280;6539;49.476;8.484;2022-07-03T01:12:33;100614.53;;;23.64;47.25
12949;BME280;6539;49.476;8.484;2022-07-03T01:19:36;100613.53;;;23.47;47.21
12949;BME280;6539;49.476;8.484;2022-07-03T01:22:41;100616.28;;;23.41;47.45
12949;BME280;6539;49.476;8.484;2022-07-03T01:28:51;100614.38;;;23.33;47.59
12949;BME280;6539;49.476;8.484;2022-07-03T01:32:38;100612.81;;;23.17;47.85
12949;BME280;6539;49.476;8.484;2022-07-03T01:38:59;100605.72;;;23.02;47.64
12949;BME280;6539;49.476;8.484;2022-07-03T01:42:28;100599.00;;;22.79;48.26
12949;BME280;6539;49.476;8.484;2022-07-03T01:45:28;100591.56;;;22.76;48.11
12949;BME280;6539;49.476;8.484;2022-07-03T01:48:44;100590.41;;;22.68;48.51
12949;BME280;6539;49.476;8.484;2022-07-03T01:51:40;100586.63;;;22.71;48.31
12949;BME280;6539;49.476;8.484;2022-07-03T01:55:26;100588.09;;;22.66;48.08
12949;BME280;6539;49.476;8.484;2022-07-03T01:58:01;100583.31;;;22.58;48.59
12949;BME280;6539;49.476;8.484;2022-07-03T02:15:03;100585.84;;;22.27;49.09
12949;BME280;6539;49.476;8.484;2022-07-03T02:18:38;100584.84;;;22.15;49.60
12949;BME280;6539;49.476;8.484;2022-07-03T02:22:10;100587.75;;;22.06;50.12
12949;BME280;6539;49.476;8.484;2022-07-03T02:32:42;100586.75;;;21.94;51.55
12949;BME280;6539;49.476;8.484;2022-07-03T02:38:50;100598.47;;;21.84;52.05
12949;BME280;6539;49.476;8.484;2022-07-03T02:53:08;100611.84;;;21.80;52.83
12949;BME280;6539;49.476;8.484;2022-07-03T03:03:45;100605.19;;;21.77;53.50
12949;BME280;6539;49.476;8.484;2022-07-03T03:20:34;100622.13;;;21.74;53.63
12949;BME280;6539;49.476;8.484;2022-07-03T03:31:04;100635.44;;;21.79;54.20
12949;BME280;6539;49.476;8.484;2022-07-03T03:34:44;100647.88;;;21.78;54.41
12949;BME280;6539;49.476;8.484;2022-07-03T03:45:04;100648.81;;;21.75;54.53
12949;BME280;6539;49.476;8.484;2022-07-03T03:52:42;100644.38;;;21.68;54.81
12949;BME280;6539;49.476;8.484;2022-07-03T03:56:13;100651.31;;;21.73;54.66
12949;BME280;6539;49.476;8.484;2022-07-03T04:03:05;100656.63;;;21.71;55.01
12949;BME280;6539;49.476;8.484;2022-07-03T04:06:37;100661.56;;;21.76;55.06
12949;BME280;6539;49.476;8.484;2022-07-03T04:24:22;100661.78;;;21.63;55.61
12949;BME280;6539;49.476;8.484;2022-07-03T04:43:25;100677.41;;;21.70;56.80
12949;BME280;6539;49.476;8.484;2022-07-03T05:03:36;100680.75;;;22.30;54.92
12949;BME280;6539;49.476;8.484;2022-07-03T05:11:16;100673.91;;;22.31;54.41
12949;BME280;6539;49.476;8.484;2022-07-03T05:26:30;100672.66;;;22.32;53.69
12949;BME280;6539;49.476;8.484;2022-07-03T05:29:44;100682.69;;;22.00;54.85
12949;BME280;6539;49.476;8.484;2022-07-03T05:33:21;100682.44;;;22.13;54.57
12949;BME280;6539;49.476;8.484;2022-07-03T05:39:43;100685.09;;;22.31;54.30
12949;BME280;6539;49.476;8.484;2022-07-03T05:42:09;100695.72;;;22.27;54.32
12949;BME280;6539;49.476;8.484;2022-07-03T05:44:34;100696.91;;;22.50;53.54
12949;BME280;6539;49.476;8.484;2022-07-03T05:47:00;100691.00;;;22.33;53.80
12949;BME280;6539;49.476;8.484;2022-07-03T05:49:30;100686.75;;;22.38;54.14
12949;BME280;6539;49.476;8.484;2022-07-03T05:51:58;100690.66;;;22.55;54.21
12949;BME280;6539;49.476;8.484;2022-07-03T05:54:27;100694.66;;;22.77;52.99
12949;BME280;6539;49.476;8.484;2022-07-03T05:56:55;100696.09;;;22.73;52.45
12949;BME280;6539;49.476;8.484;2022-07-03T05:59:28;100699.75;;;22.64;52.74
12949;BME280;6539;49.476;8.484;2022-07-03T06:01:56;100698.41;;;22.60;52.95
12949;BME280;6539;49.476;8.484;2022-07-03T06:04:22;100693.66;;;22.51;53.03
12949;BME280;6539;49.476;8.484;2022-07-03T06:06:48;100704.75;;;22.60;53.44
12949;BME280;6539;49.476;8.484;2022-07-03T06:09:13;100699.97;;;22.75;52.55
12949;BME280;6539;49.476;8.484;2022-07-03T06:11:39;100709.25;;;22.82;52.29
12949;BME280;6539;49.476;8.484;2022-07-03T06:14:08;100706.81;;;22.74;52.08
12949;BME280;6539;49.476;8.484;2022-07-03T06:16:33;100694.66;;;23.07;51.33
12949;BME280;6539;49.476;8.484;2022-07-03T06:19:01;100700.44;;;23.18;51.13
12949;BME280;6539;49.476;8.484;2022-07-03T06:21:29;100697.50;;;23.27;51.64
12949;BME280;6539;49.476;8.484;2022-07-03T06:23:55;100699.28;;;23.24;50.45
12949;BME280;6539;49.476;8.484;2022-07-03T06:26:25;100706.84;;;23.33;51.32
12949;BME280;6539;49.476;8.484;2022-07-03T06:28:52;100703.91;;;23.27;51.01
12949;BME280;6539;49.476;8.484;2022-07-03T06:31:20;100708.75;;;23.12;51.00
12949;BME280;6539;49.476;8.484;2022-07-03T06:33:46;100703.81;;;23.22;51.50
12949;BME280;6539;49.476;8.484;2022-07-03T06:36:12;100706.13;;;23.38;51.08
12949;BME280;6539;49.476;8.484;2022-07-03T06:38:38;100710.22;;;23.37;50.40
12949;BME280;6539;49.476;8.484;2022-07-03T06:41:06;100699.97;;;23.34;50.76
12949;BME280;6539;49.476;8.484;2022-07-03T06:43:32;100706.53;;;23.45;50.46
12949;BME280;6539;49.476;8.484;2022-07-03T06:46:00;100710.84;;;23.61;50.51
12949;BME280;6539;49.476;8.484;2022-07-03T06:48:25;100715.06;;;23.71;50.06
12949;BME280;6539;49.476;8.484;2022-07-03T06:50:56;100719.69;;;23.74;49.63
12949;BME280;6539;49.476;8.484;2022-07-03T06:53:24;100715.13;;;23.77;49.91
12949;BME280;6539;49.476;8.484;2022-07-03T06:55:52;100708.91;;;23.87;49.86
12949;BME280;6539;49.476;8.484;2022-07-03T06:58:20;100710.22;;;24.06;49.85
12949;BME280;6539;49.476;8.484;2022-07-03T07:00:46;100709.44;;;24.26;49.42
12949;BME280;6539;49.476;8.484;2022-07-03T07:03:14;100700.72;;;24.44;49.57
12949;BME280;6539;49.476;8.484;2022-07-03T07:05:40;100704.22;;;24.85;47.84
12949;BME280;6539;49.476;8.484;2022-07-03T07:08:07;100708.25;;;25.04;47.75
12949;BME280;6539;49.476;8.484;2022-07-03T07:10:35;100707.72;;;25.31;48.20
12949;BME280;6539;49.476;8.484;2022-07-03T07:13:01;100715.06;;;25.54;47.47
12949;BME280;6539;49.476;8.484;2022-07-03T07:15:29;100721.63;;;25.83;47.12
12949;BME280;6539;49.476;8.484;2022-07-03T07:17:56;100709.78;;;26.10;44.96
12949;BME280;6539;49.476;8.484;2022-07-03T07:20:22;100713.41;;;26.21;45.80
12949;BME280;6539;49.476;8.484;2022-07-03T07:22:48;100707.91;;;26.55;45.52
12949;BME280;6539;49.476;8.484;2022-07-03T07:25:13;100709.00;;;26.74;45.76
12949;BME280;6539;49.476;8.484;2022-07-03T07:27:42;100702.63;;;27.06;44.73
12949;BME280;6539;49.476;8.484;2022-07-03T07:30:08;100694.66;;;27.16;43.91
12949;BME280;6539;49.476;8.484;2022-07-03T07:32:34;100705.97;;;27.44;44.65
12949;BME280;6539;49.476;8.484;2022-07-03T07:35:00;100700.28;;;27.66;41.91
12949;BME280;6539;49.476;8.484;2022-07-03T07:37:34;100712.88;;;27.48;41.98
12949;BME280;6539;49.476;8.484;2022-07-03T07:40:03;100707.19;;;27.65;43.00
12949;BME280;6539;49.476;8.484;2022-07-03T07:42:29;100713.06;;;27.78;42.82
12949;BME280;6539;49.476;8.484;2022-07-03T07:44:54;100707.66;;;27.91;41.69
12949;BME280;6539;49.476;8.484;2022-07-03T07:47:23;100710.47;;;27.97;40.63
12949;BME280;6539;49.476;8.484;2022-07-03T07:49:48;100712.78;;;27.98;41.74
12949;BME280;6539;49.476;8.484;2022-07-03T07:52:17;100710.97;;;28.06;40.44
12949;BME280;6539;49.476;8.484;2022-07-03T07:54:45;100715.25;;;28.29;40.61
12949;BME280;6539;49.476;8.484;2022-07-03T07:57:11;100714.63;;;28.47;39.98
12949;BME280;6539;49.476;8.484;2022-07-03T07:59:36;100717.56;;;28.25;39.26
12949;BME280;6539;49.476;8.484;2022-07-03T08:02:02;100714.00;;;28.25;39.39
12949;BME280;6539;49.476;8.484;2022-07-03T08:04:47;100721.16;;;28.31;40.42
12949;BME280;6539;49.476;8.484;2022-07-03T08:07:33;100715.38;;;28.53;39.84
12949;BME280;6539;49.476;8.484;2022-07-03T08:09:59;100713.81;;;28.58;38.34
12949;BME280;6539;49.476;8.484;2022-07-03T08:12:27;100720.38;;;28.77;37.91
12949;BME280;6539;49.476;8.484;2022-07-03T08:14:56;100719.91;;;28.73;38.61
12949;BME280;6539;49.476;8.484;2022-07-03T08:17:24;100714.41;;;28.92;37.15
12949;BME280;6539;49.476;8.484;2022-07-03T08:19:49;100720.31;;;28.88;38.53
12949;BME280;6539;49.476;8.484;2022-07-03T08:22:15;100714.47;;;29.16;37.74
12949;BME280;6539;49.476;8.484;2022-07-03T08:24:41;100720.38;;;29.18;36.86
12949;BME280;6539;49.476;8.484;2022-07-03T08:27:09;100711.97;;;29.07;36.98
12949;BME280;6539;49.476;8.484;2022-07-03T08:29:34;100711.88;;;29.18;36.86
12949;BME280;6539;49.476;8.484;2022-07-03T08:32:04;100715.19;;;28.87;37.19
12949;BME280;6539;49.476;8.484;2022-07-03T08:34:29;100708.41;;;29.01;37.51
12949;BME280;6539;49.476;8.484;2022-07-03T08:36:55;100708.81;;;29.16;37.12
12949;BME280;6539;49.476;8.484;2022-07-03T08:39:21;100706.97;;;29.24;36.87
12949;BME280;6539;49.476;8.484;2022-07-03T08:41:49;100704.63;;;29.28;37.89
12949;BME280;6539;49.476;8.484;2022-07-03T08:44:18;100697.56;;;29.40;36.58
12949;BME280;6539;49.476;8.484;2022-07-03T08:46:47;100703.00;;;29.62;36.61
12949;BME280;6539;49.476;8.484;2022-07-03T08:49:18;100702.03;;;29.84;37.15
12949;BME280;6539;49.476;8.484;2022-07-03T08:51:45;100701.66;;;29.93;35.98
12949;BME280;6539;49.476;8.484;2022-07-03T08:54:14;100697.69;;;30.01;36.08
12949;BME280;6539;49.476;8.484;2022-07-03T08:56:40;100707.44;;;30.06;35.46
12949;BME280;6539;49.476;8.484;2022-07-03T08:59:13;100708.03;;;30.17;34.60
12949;BME280;6539;49.476;8.484;2022-07-03T09:01:39;100700.78;;;29.79;34.70
12949;BME280;6539;49.476;8.484;2022-07-03T09:04:12;100704.31;;;29.85;34.94
12949;BME280;6539;49.476;8.484;2022-07-03T09:06:46;100692.91;;;29.67;34.90
12949;BME280;6539;49.476;8.484;2022-07-03T09:09:15;100702.13;;;29.73;35.91
12949;BME280;6539;49.476;8.484;2022-07-03T09:11:41;100692.41;;;29.92;35.63
12949;BME280;6539;49.476;8.484;2022-07-03T09:14:09;100693.31;;;30.00;34.43
12949;BME280;6539;49.476;8.484;2022-07-03T09:16:36;100690.72;;;30.02;35.81
12949;BME280;6539;49.476;8.484;2022-07-03T09:19:02;100703.84;;;30.05;34.48
12949;BME280;6539;49.476;8.484;2022-07-03T09:21:41;100694.53;;;29.86;33.72
12949;BME280;6539;49.476;8.484;2022-07-03T09:24:09;100700.78;;;29.79;36.02
12949;BME280;6539;49.476;8.484;2022-07-03T09:26:52;100694.25;;;30.08;34.95
12949;BME280;6539;49.476;8.484;2022-07-03T09:29:19;100697.66;;;30.26;34.64
12949;BME280;6539;49.476;8.484;2022-07-03T09:31:56;100689.06;;;30.12;34.01
12949;BME280;6539;49.476;8.484;2022-07-03T09:34:24;100692.00;;;30.26;34.15
12949;BME280;6539;49.476;8.484;2022-07-03T09:36:52;100686.00;;;30.29;33.27
12949;BME280;6539;49.476;8.484;2022-07-03T09:39:29;100690.91;;;30.29;32.90
12949;BME280;6539;49.476;8.484;2022-07-03T09:42:11;100692.41;;;30.35;32.86
12949;BME280;6539;49.476;8.484;2022-07-03T09:44:43;100697.25;;;30.16;33.49
12949;BME280;6539;49.476;8.484;2022-07-03T09:47:23;100692.38;;;30.17;32.69
12949;BME280;6539;49.476;8.484;2022-07-03T09:53:29;100689.06;;;30.12;34.50
12949;BME280;6539;49.476;8.484;2022-07-03T09:56:36;100685.28;;;30.47;34.10
12949;BME280;6539;49.476;8.484;2022-07-03T09:59:11;100687.84;;;30.82;33.69
12949;BME280;6539;49.476;8.484;2022-07-03T10:01:43;100681.06;;;31.04;31.25
12949;BME280;6539;49.476;8.484;2022-07-03T10:04:19;100685.47;;;30.86;31.66
12949;BME280;6539;49.476;8.484;2022-07-03T10:06:57;100683.34;;;30.93;32.34
12949;BME280;6539;49.476;8.484;2022-07-03T10:09:32;100680.25;;;30.91;33.64
12949;BME280;6539;49.476;8.484;2022-07-03T10:12:01;100676.28;;;31.12;32.89
12949;BME280;6539;49.476;8.484;2022-07-03T10:14:55;100679.66;;;31.11;31.74
12949;BME280;6539;49.476;8.484;2022-07-03T10:17:21;100667.22;;;31.01;30.93
12949;BME280;6539;49.476;8.484;2022-07-03T10:19:46;100676.56;;;30.96;30.51
12949;BME280;6539;49.476;8.484;2022-07-03T10:22:21;100676.38;;;30.75;30.84
12949;BME280;6539;49.476;8.484;2022-07-03T10:28:34;100655.56;;;30.35;32.88
12949;BME280;6539;49.476;8.484;2022-07-03T10:31:08;100648.88;;;30.33;31.39
12949;BME280;6539;49.476;8.484;2022-07-03T10:33:37;100654.34;;;30.49;31.35
12949;BME280;6539;49.476;8.484;2022-07-03T10:36:08;100658.44;;;30.67;31.78
12949;BME280;6539;49.476;8.484;2022-07-03T10:38:40;100662.50;;;30.90;31.00
12949;BME280;6539;49.476;8.484;2022-07-03T10:44:03;100662.03;;;30.86;30.78
12949;BME280;6539;49.476;8.484;2022-07-03T10:46:47;100661.16;;;30.91;30.38
12949;BME280;6539;49.476;8.484;2022-07-03T10:49:16;100652.25;;;31.00;30.52
12949;BME280;6539;49.476;8.484;2022-07-03T10:52:01;100657.25;;;30.94;30.91
12949;BME280;6539;49.476;8.484;2022-07-03T10:54:32;100661.94;;;30.92;30.80
12949;BME280;6539;49.476;8.484;2022-07-03T10:57:05;100657.25;;;30.94;31.90
12949;BME280;6539;49.476;8.484;2022-07-03T11:07:32;100632.94;;;30.99;30.03
12949;BME280;6539;49.476;8.484;2022-07-03T11:18:31;100630.06;;;31.30;30.03
12949;BME280;6539;49.476;8.484;2022-07-03T11:21:31;100619.00;;;31.14;29.35
12949;BME280;6539;49.476;8.484;2022-07-03T11:27:11;100624.50;;;31.25;28.08
12949;BME280;6539;49.476;8.484;2022-07-03T11:29:44;100615.44;;;31.39;28.67
12949;BME280;6539;49.476;8.484;2022-07-03T11:35:51;100612.59;;;31.26;27.75
12949;BME280;6539;49.476;8.484;2022-07-03T11:38:28;100603.19;;;31.18;27.81
12949;BME280;6539;49.476;8.484;2022-07-03T11:40:57;100610.81;;;31.23;27.86
12949;BME280;6539;49.476;8.484;2022-07-03T11:43:24;100602.16;;;31.47;28.01
12949;BME280;6539;49.476;8.484;2022-07-03T11:45:56;100609.13;;;31.59;28.13
12949;BME280;6539;49.476;8.484;2022-07-03T11:48:26;100604.13;;;31.66;26.84
12949;BME280;6539;49.476;8.484;2022-07-03T11:51:03;100594.50;;;31.55;27.33
12949;BME280;6539;49.476;8.484;2022-07-03T11:53:38;100592.13;;;31.46;26.92
12949;BME280;6539;49.476;8.484;2022-07-03T11:56:10;100596.13;;;31.51;27.70
12949;BME280;6539;49.476;8.484;2022-07-03T11:58:54;100584.97;;;31.66;27.46
12949;BME280;6539;49.476;8.484;2022-07-03T12:04:14;100573.88;;;31.55;27.24
12949;BME280;6539;49.476;8.484;2022-07-03T12:06:53;100579.44;;;31.60;27.32
12949;BME280;6539;49.476;8.484;2022-07-03T12:14:41;100573.28;;;31.83;27.24
12949;BME280;6539;49.476;8.484;2022-07-03T12:17:13;100583.97;;;31.90;26.88
12949;BME280;6539;49.476;8.484;2022-07-03T12:19:51;100583.31;;;31.97;26.17
12949;BME280;6539;49.476;8.484;2022-07-03T12:22:36;100584.31;;;31.86;26.37
12949;BME280;6539;49.476;8.484;2022-07-03T12:25:09;100572.38;;;31.88;26.62
12949;BME280;6539;49.476;8.484;2022-07-03T12:27:42;100579.06;;;31.77;26.63
12949;BME280;6539;49.476;8.484;2022-07-03T12:30:21;100571.09;;;31.36;26.60
12949;BME280;6539;49.476;8.484;2022-07-03T12:32:54;100568.06;;;31.34;27.24
12949;BME280;6539;49.476;8.484;2022-07-03T12:35:25;100569.41;;;31.46;27.62
12949;BME280;6539;49.476;8.484;2022-07-03T12:37:56;100563.38;;;31.63;27.57
12949;BME280;6539;49.476;8.484;2022-07-03T12:40:23;100569.56;;;31.75;27.23
12949;BME280;6539;49.476;8.484;2022-07-03T12:42:56;100573.19;;;31.75;27.41
12949;BME280;6539;49.476;8.484;2022-07-03T12:45:31;100567.91;;;31.79;27.51
12949;BME280;6539;49.476;8.484;2022-07-03T12:48:05;100561.50;;;31.79;27.02
12949;BME280;6539;49.476;8.484;2022-07-03T12:50:49;100562.66;;;31.83;27.63
12949;BME280;6539;49.476;8.484;2022-07-03T12:53:32;100550.00;;;31.97;27.43
12949;BME280;6539;49.476;8.484;2022-07-03T12:56:07;100555.91;;;31.99;26.94
12949;BME280;6539;49.476;8.484;2022-07-03T12:58:38;100554.69;;;31.95;27.02
12949;BME280;6539;49.476;8.484;2022-07-03T13:01:31;100547.59;;;31.88;26.66
12949;BME280;6539;49.476;8.484;2022-07-03T13:04:02;100551.22;;;31.76;26.42
12949;BME280;6539;49.476;8.484;2022-07-03T13:06:33;100546.63;;;31.73;26.62
12949;BME280;6539;49.476;8.484;2022-07-03T13:09:05;100539.09;;;31.75;26.82
12949;BME280;6539;49.476;8.484;2022-07-03T13:11:36;100541.84;;;31.81;26.93
12949;BME280;6539;49.476;8.484;2022-07-03T13:14:11;100543.13;;;31.80;27.02
12949;BME280;6539;49.476;8.484;2022-07-03T13:16:49;100543.59;;;31.71;26.79
12949;BME280;6539;49.476;8.484;2022-07-03T13:19:26;100544.16;;;31.56;25.95
12949;BME280;6539;49.476;8.484;2022-07-03T13:21:59;100542.50;;;31.34;27.47
12949;BME280;6539;49.476;8.484;2022-07-03T13:24:30;100541.09;;;31.28;27.19
12949;BME280;6539;49.476;8.484;2022-07-03T13:26:55;100542.94;;;31.25;27.01
12949;BME280;6539;49.476;8.484;2022-07-03T13:29:25;100544.06;;;31.22;27.53
12949;BME280;6539;49.476;8.484;2022-07-03T13:31:50;100537.94;;;31.18;28.40
12949;BME280;6539;49.476;8.484;2022-07-03T13:34:17;100534.66;;;31.14;28.63
12949;BME280;6539;49.476;8.484;2022-07-03T13:36:43;100538.16;;;31.07;27.92
12949;BME280;6539;49.476;8.484;2022-07-03T13:39:09;100542.63;;;31.03;27.82
12949;BME280;6539;49.476;8.484;2022-07-03T13:41:35;100536.06;;;31.08;33.25
12949;BME280;6539;49.476;8.484;2022-07-03T13:44:02;100537.38;;;31.07;30.55
12949;BME280;6539;49.476;8.484;2022-07-03T13:46:28;100528.97;;;31.14;27.97
12949;BME280;6539;49.476;8.484;2022-07-03T13:48:54;100536.84;;;31.21;30.45
12949;BME280;6539;49.476;8.484;2022-07-03T13:51:20;100541.44;;;31.24;27.72
12949;BME280;6539;49.476;8.484;2022-07-03T13:53:48;100530.94;;;31.32;27.46
12949;BME280;6539;49.476;8.484;2022-07-03T13:56:16;100535.34;;;31.46;28.40
12949;BME280;6539;49.476;8.484;2022-07-03T13:58:42;100533.88;;;31.53;27.61
12949;BME280;6539;49.476;8.484;2022-07-03T14:01:08;100519.81;;;31.47;27.20
12949;BME280;6539;49.476;8.484;2022-07-03T14:03:36;100529.09;;;31.48;27.20
12949;BME280;6539;49.476;8.484;2022-07-03T14:06:02;100516.31;;;31.54;28.17
12949;BME280;6539;49.476;8.484;2022-07-03T14:08:28;100529.44;;;31.31;26.74
12949;BME280;6539;49.476;8.484;2022-07-03T14:10:54;100525.69;;;31.36;27.92
12949;BME280;6539;49.476;8.484;2022-07-03T14:13:20;100518.06;;;31.31;27.11
12949;BME280;6539;49.476;8.484;2022-07-03T14:15:48;100516.97;;;31.21;26.96
12949;BME280;6539;49.476;8.484;2022-07-03T14:18:14;100518.38;;;31.28;28.19
12949;BME280;6539;49.476;8.484;2022-07-03T14:20:42;100510.09;;;31.17;29.49
12949;BME280;6539;49.476;8.484;2022-07-03T14:23:10;100518.50;;;31.09;27.74
12949;BME280;6539;49.476;8.484;2022-07-03T14:25:36;100503.22;;;31.12;27.29
12949;BME280;6539;49.476;8.484;2022-07-03T14:28:07;100504.75;;;31.00;25.98
12949;BME280;6539;49.476;8.484;2022-07-03T14:30:52;100515.22;;;30.92;25.71
12949;BME280;6539;49.476;8.484;2022-07-03T14:33:36;100515.13;;;30.98;26.44
12949;BME280;6539;49.476;8.484;2022-07-03T14:36:04;100500.72;;;31.09;25.34
12949;BME280;6539;49.476;8.484;2022-07-03T14:38:33;100501.59;;;31.17;25.90
12949;BME280;6539;49.476;8.484;2022-07-03T14:40:58;100505.63;;;31.21;25.77
12949;BME280;6539;49.476;8.484;2022-07-03T14:43:27;100502.78;;;31.21;25.56
12949;BME280;6539;49.476;8.484;2022-07-03T14:45:53;100500.94;;;31.24;25.77
12949;BME280;6539;49.476;8.484;2022-07-03T14:48:22;100505.53;;;31.27;25.56
12949;BME280;6539;49.476;8.484;2022-07-03T14:50:51;100501.47;;;31.35;25.79
12949;BME280;6539;49.476;8.484;2022-07-03T14:53:19;100506.50;;;31.42;25.34
12949;BME280;6539;49.476;8.484;2022-07-03T14:55:46;100509.13;;;31.40;25.55
12949;BME280;6539;49.476;8.484;2022-07-03T14:58:19;100514.81;;;31.40;25.38
12949;BME280;6539;49.476;8.484;2022-07-03T15:00:56;100503.44;;;31.40;24.47
12949;BME280;6539;49.476;8.484;2022-07-03T15:03:33;100492.19;;;31.35;24.60
12949;BME280;6539;49.476;8.484;2022-07-03T15:06:02;100499.50;;;31.30;24.90
12949;BME280;6539;49.476;8.484;2022-07-03T15:08:43;100497.00;;;31.27;25.78
12949;BME280;6539;49.476;8.484;2022-07-03T15:14:22;100496.69;;;31.17;25.66
12949;BME280;6539;49.476;8.484;2022-07-03T15:16:50;100499.53;;;31.04;25.77
12949;BME280;6539;49.476;8.484;2022-07-03T15:19:18;100495.38;;;31.05;25.45
12949;BME280;6539;49.476;8.484;2022-07-03T15:21:45;100491.22;;;31.06;25.64
12949;BME280;6539;49.476;8.484;2022-07-03T15:24:13;100492.13;;;31.01;26.22
12949;BME280;6539;49.476;8.484;2022-07-03T15:26:41;100495.91;;;31.04;26.01
12949;BME280;6539;49.476;8.484;2022-07-03T15:29:13;100487.09;;;31.07;26.11
12949;BME280;6539;49.476;8.484;2022-07-03T15:31:39;100482.28;;;31.02;25.71
12949;BME280;6539;49.476;8.484;2022-07-03T15:34:07;100482.28;;;31.02;25.75
12949;BME280;6539;49.476;8.484;2022-07-03T15:36:50;100480.09;;;30.95;25.76
12949;BME280;6539;49.476;8.484;2022-07-03T15:39:55;100474.41;;;30.95;26.04
12949;BME280;6539;49.476;8.484;2022-07-03T15:43:10;100482.16;;;31.08;26.50
12949;BME280;6539;49.476;8.484;2022-07-03T15:49:10;100470.94;;;31.02;26.78
12949;BME280;6539;49.476;8.484;2022-07-03T15:54:51;100467.13;;;31.00;26.82
12949;BME280;6539;49.476;8.484;2022-07-03T15:57:27;100468.44;;;30.99;26.55
12949;BME280;6539;49.476;8.484;2022-07-03T16:00:05;100463.28;;;30.97;26.15
12949;BME280;6539;49.476;8.484;2022-07-03T16:05:05;100464.19;;;31.05;26.29
12949;BME280;6539;49.476;8.484;2022-07-03T16:07:38;100460.22;;;31.08;25.99
12949;BME280;6539;49.476;8.484;2022-07-03T16:10:08;100455.00;;;31.12;26.03
12949;BME280;6539;49.476;8.484;2022-07-03T16:12:38;100453.56;;;31.19;26.10
12949;BME280;6539;49.476;8.484;2022-07-03T16:15:09;100455.44;;;31.16;26.85
12949;BME280;6539;49.476;8.484;2022-07-03T16:17:35;100451.63;;;31.14;26.51
12949;BME280;6539;49.476;8.484;2022-07-03T16:20:05;100450.75;;;31.06;26.95
12949;BME280;6539;49.476;8.484;2022-07-03T16:22:36;100453.34;;;31.04;26.84
12949;BME280;6539;49.476;8.484;2022-07-03T16:25:08;100456.53;;;31.00;26.98
12949;BME280;6539;49.476;8.484;2022-07-03T16:27:35;100453.34;;;31.04;27.21
12949;BME280;6539;49.476;8.484;2022-07-03T16:30:05;100464.41;;;31.07;27.79
12949;BME280;6539;49.476;8.484;2022-07-03T16:32:40;100458.28;;;31.03;28.10
12949;BME280;6539;49.476;8.484;2022-07-03T16:35:27;100459.47;;;30.81;29.48
12949;BME280;6539;49.476;8.484;2022-07-03T16:38:02;100460.84;;;30.62;30.40
12949;BME280;6539;49.476;8.484;2022-07-03T16:40:31;100451.38;;;30.59;30.33
12949;BME280;6539;49.476;8.484;2022-07-03T16:43:01;100450.03;;;30.60;30.52
12949;BME280;6539;49.476;8.484;2022-07-03T16:45:32;100444.94;;;30.59;30.75
12949;BME280;6539;49.476;8.484;2022-07-03T16:48:24;100442.09;;;30.59;30.40
12949;BME280;6539;49.476;8.484;2022-07-03T16:51:01;100435.88;;;30.60;29.80
12949;BME280;6539;49.476;8.484;2022-07-03T16:53:27;100450.59;;;30.59;30.33
12949;BME280;6539;49.476;8.484;2022-07-03T16:55:54;100445.47;;;30.57;30.87
12949;BME280;6539;49.476;8.484;2022-07-03T16:58:22;100442.94;;;30.54;31.26
12949;BME280;6539;49.476;8.484;2022-07-03T17:00:51;100441.00;;;30.49;30.65
12949;BME280;6539;49.476;8.484;2022-07-03T17:03:20;100433.56;;;30.46;30.38
12949;BME280;6539;49.476;8.484;2022-07-03T17:05:51;100439.69;;;30.50;30.41
12949;BME280;6539;49.476;8.484;2022-07-03T17:08:20;100441.00;;;30.49;30.61
12949;BME280;6539;49.476;8.484;2022-07-03T17:10:48;100433.78;;;30.48;30.82
12949;BME280;6539;49.476;8.484;2022-07-03T17:13:13;100440.78;;;30.47;30.49
12949;BME280;6539;49.476;8.484;2022-07-03T17:15:42;100428.13;;;30.48;30.54
12949;BME280;6539;49.476;8.484;2022-07-03T17:18:08;100430.94;;;30.48;30.79
12949;BME280;6539;49.476;8.484;2022-07-03T17:20:44;100433.34;;;30.44;30.55
12949;BME280;6539;49.476;8.484;2022-07-03T17:23:21;100432.13;;;30.39;30.59
12949;BME280;6539;49.476;8.484;2022-07-03T17:25:53;100438.13;;;30.36;31.02
12949;BME280;6539;49.476;8.484;2022-07-03T17:28:26;100430.25;;;30.29;31.15
12949;BME280;6539;49.476;8.484;2022-07-03T17:31:04;100433.81;;;30.16;31.58
12949;BME280;6539;49.476;8.484;2022-07-03T17:33:31;100427.69;;;30.12;31.06